sensor_id;sensor_type;location;lat;lon;timestamp;P1;durP1;ratioP1;P2;durP2;ratioP2
32824;SDS011;51060;42.640;24.356;2022-11-21T00:00:21;15.57;;;11.07;;
32824;SDS011;51060;42.640;24.356;2022-11-21T00:02:47;11.83;;;9.93;;
32824;SDS011;51060;42.640;24.356;2022-11-21T00:05:13;12.73;;;10.73;;
32824;SDS011;51060;42.640;24.356;2022-11-21T00:07:38;8.30;;;6.57;;
32824;SDS011;51060;42.640;24.356;2022-11-21T00:10:04;6.00;;;5.17;;
32824;SDS011;51060;42.640;24.356;2022-11-21T00:12:30;9.40;;;7.60;;
32824;SDS011;51060;42.640;24.356;2022-11-21T00:14:56;13.70;;;11.73;;
32824;SDS011;51060;42.640;24.356;2022-11-21T00:17:21;20.60;;;14.47;;
32824;SDS011;51060;42.640;24.356;2022-11-21T00:19:47;13.73;;;9.23;;
32824;SDS011;51060;42.640;24.356;2022-11-21T00:22:12;16.37;;;11.03;;
32824;SDS011;51060;42.640;24.356;2022-11-21T00:24:38;19.03;;;12.87;;
32824;SDS011;51060;42.640;24.356;2022-11-21T00:27:03;17.80;;;13.53;;
32824;SDS011;51060;42.640;24.356;2022-11-21T00:29:29;17.80;;;12.37;;
32824;SDS011;51060;42.640;24.356;2022-11-21T00:31:54;11.80;;;9.30;;
32824;SDS011;51060;42.640;24.356;2022-11-21T00:34:20;7.80;;;5.10;;
32824;SDS011;51060;42.640;24.356;2022-11-21T00:36:45;7.60;;;4.63;;
32824;SDS011;51060;42.640;24.356;2022-11-21T00:39:11;8.97;;;4.80;;
32824;SDS011;51060;42.640;24.356;2022-11-21T00:41:37;9.43;;;5.23;;
32824;SDS011;51060;42.640;24.356;2022-11-21T00:44:02;12.80;;;7.90;;
32824;SDS011;51060;42.640;24.356;2022-11-21T00:46:28;12.13;;;6.70;;
32824;SDS011;51060;42.640;24.356;2022-11-21T00:48:53;8.83;;;3.33;;
32824;SDS011;51060;42.640;24.356;2022-11-21T00:51:19;6.70;;;2.77;;
32824;SDS011;51060;42.640;24.356;2022-11-21T00:53:44;7.57;;;2.57;;
32824;SDS011;51060;42.640;24.356;2022-11-21T00:56:10;5.43;;;2.10;;
32824;SDS011;51060;42.640;24.356;2022-11-21T00:58:36;6.87;;;2.03;;
32824;SDS011;51060;42.640;24.356;2022-11-21T01:01:05;5.27;;;1.80;;
32824;SDS011;51060;42.640;24.356;2022-11-21T01:03:34;7.13;;;2.17;;
32824;SDS011;51060;42.640;24.356;2022-11-21T01:06:10;4.10;;;2.07;;
32824;SDS011;51060;42.640;24.356;2022-11-21T01:08:39;7.37;;;2.73;;
32824;SDS011;51060;42.640;24.356;2022-11-21T01:11:06;6.10;;;2.17;;
32824;SDS011;51060;42.640;24.356;2022-11-21T01:13:33;4.13;;;2.10;;
32824;SDS011;51060;42.640;24.356;2022-11-21T01:16:06;6.77;;;3.03;;
32824;SDS011;51060;42.640;24.356;2022-11-21T01:18:36;9.13;;;5.07;;
32824;SDS011;51060;42.640;24.356;2022-11-21T01:21:15;7.63;;;2.90;;
32824;SDS011;51060;42.640;24.356;2022-11-21T01:23:41;5.93;;;2.57;;
32824;SDS011;51060;42.640;24.356;2022-11-21T01:26:11;4.13;;;2.50;;
32824;SDS011;51060;42.640;24.356;2022-11-21T01:28:38;4.33;;;1.90;;
32824;SDS011;51060;42.640;24.356;2022-11-21T01:31:11;2.87;;;1.70;;
32824;SDS011;51060;42.640;24.356;2022-11-21T01:33:38;8.27;;;4.30;;
32824;SDS011;51060;42.640;24.356;2022-11-21T01:36:11;4.20;;;1.30;;
32824;SDS011;51060;42.640;24.356;2022-11-21T01:41:23;1.60;;;0.60;;
32824;SDS011;51060;42.640;24.356;2022-11-21T01:43:49;2.23;;;0.40;;
32824;SDS011;51060;42.640;24.356;2022-11-21T01:46:17;0.77;;;0.50;;
32824;SDS011;51060;42.640;24.356;2022-11-21T01:57:02;1.57;;;0.80;;
32824;SDS011;51060;42.640;24.356;2022-11-21T01:59:55;1.87;;;0.50;;
32824;SDS011;51060;42.640;24.356;2022-11-21T02:02:24;1.50;;;0.80;;
32824;SDS011;51060;42.640;24.356;2022-11-21T02:04:52;0.77;;;0.40;;
32824;SDS011;51060;42.640;24.356;2022-11-21T02:07:18;3.77;;;0.60;;
32824;SDS011;51060;42.640;24.356;2022-11-21T02:09:45;1.23;;;0.70;;
32824;SDS011;51060;42.640;24.356;2022-11-21T02:12:17;1.27;;;0.40;;
32824;SDS011;51060;42.640;24.356;2022-11-21T02:14:47;2.50;;;0.80;;
32824;SDS011;51060;42.640;24.356;2022-11-21T02:17:16;2.20;;;1.60;;
32824;SDS011;51060;42.640;24.356;2022-11-21T02:27:32;1.73;;;1.03;;
32824;SDS011;51060;42.640;24.356;2022-11-21T02:29:58;3.40;;;1.30;;
32824;SDS011;51060;42.640;24.356;2022-11-21T02:32:30;2.40;;;1.20;;
32824;SDS011;51060;42.640;24.356;2022-11-21T02:34:57;1.47;;;0.80;;
32824;SDS011;51060;42.640;24.356;2022-11-21T02:37:23;2.30;;;0.97;;
32824;SDS011;51060;42.640;24.356;2022-11-21T02:39:49;2.40;;;0.80;;
32824;SDS011;51060;42.640;24.356;2022-11-21T02:47:39;2.63;;;1.03;;
32824;SDS011;51060;42.640;24.356;2022-11-21T02:50:12;1.60;;;0.90;;
32824;SDS011;51060;42.640;24.356;2022-11-21T02:52:38;3.50;;;1.40;;
32824;SDS011;51060;42.640;24.356;2022-11-21T02:55:04;2.63;;;1.63;;
32824;SDS011;51060;42.640;24.356;2022-11-21T02:57:30;5.20;;;1.77;;
32824;SDS011;51060;42.640;24.356;2022-11-21T02:59:55;3.30;;;2.20;;
32824;SDS011;51060;42.640;24.356;2022-11-21T03:02:21;13.50;;;6.13;;
32824;SDS011;51060;42.640;24.356;2022-11-21T03:04:46;13.87;;;5.93;;
32824;SDS011;51060;42.640;24.356;2022-11-21T03:07:12;5.67;;;2.60;;
32824;SDS011;51060;42.640;24.356;2022-11-21T03:09:38;23.23;;;11.53;;
32824;SDS011;51060;42.640;24.356;2022-11-21T03:12:05;7.27;;;3.10;;
32824;SDS011;51060;42.640;24.356;2022-11-21T03:14:32;6.37;;;3.17;;
32824;SDS011;51060;42.640;24.356;2022-11-21T03:16:58;5.37;;;2.43;;
32824;SDS011;51060;42.640;24.356;2022-11-21T03:19:23;15.23;;;6.93;;
32824;SDS011;51060;42.640;24.356;2022-11-21T03:21:49;5.07;;;3.30;;
32824;SDS011;51060;42.640;24.356;2022-11-21T03:24:14;9.03;;;4.10;;
32824;SDS011;51060;42.640;24.356;2022-11-21T03:26:40;52.07;;;22.33;;
32824;SDS011;51060;42.640;24.356;2022-11-21T03:29:06;35.13;;;16.80;;
32824;SDS011;51060;42.640;24.356;2022-11-21T03:31:31;48.80;;;22.57;;
32824;SDS011;51060;42.640;24.356;2022-11-21T03:33:57;18.37;;;10.33;;
32824;SDS011;51060;42.640;24.356;2022-11-21T03:36:22;28.10;;;17.30;;
32824;SDS011;51060;42.640;24.356;2022-11-21T03:38:48;19.50;;;13.27;;
32824;SDS011;51060;42.640;24.356;2022-11-21T03:41:14;8.13;;;7.00;;
32824;SDS011;51060;42.640;24.356;2022-11-21T03:44:04;11.50;;;8.80;;
32824;SDS011;51060;42.640;24.356;2022-11-21T03:46:32;6.57;;;4.33;;
32824;SDS011;51060;42.640;24.356;2022-11-21T03:48:58;7.87;;;5.93;;
32824;SDS011;51060;42.640;24.356;2022-11-21T03:51:24;4.00;;;3.57;;
32824;SDS011;51060;42.640;24.356;2022-11-21T03:53:50;5.87;;;4.00;;
32824;SDS011;51060;42.640;24.356;2022-11-21T03:56:16;4.10;;;2.20;;
32824;SDS011;51060;42.640;24.356;2022-11-21T03:58:42;12.10;;;8.20;;
32824;SDS011;51060;42.640;24.356;2022-11-21T04:01:07;9.13;;;5.43;;
32824;SDS011;51060;42.640;24.356;2022-11-21T04:03:33;3.63;;;1.80;;
32824;SDS011;51060;42.640;24.356;2022-11-21T04:05:59;3.27;;;1.60;;
32824;SDS011;51060;42.640;24.356;2022-11-21T04:08:25;5.73;;;2.30;;
32824;SDS011;51060;42.640;24.356;2022-11-21T04:10:51;4.57;;;1.50;;
32824;SDS011;51060;42.640;24.356;2022-11-21T04:13:17;5.70;;;2.13;;
32824;SDS011;51060;42.640;24.356;2022-11-21T04:15:44;5.00;;;1.70;;
32824;SDS011;51060;42.640;24.356;2022-11-21T04:18:10;4.67;;;1.50;;
32824;SDS011;51060;42.640;24.356;2022-11-21T04:20:35;5.13;;;3.90;;
32824;SDS011;51060;42.640;24.356;2022-11-21T04:23:01;8.57;;;4.20;;
32824;SDS011;51060;42.640;24.356;2022-11-21T04:25:27;9.13;;;3.10;;
32824;SDS011;51060;42.640;24.356;2022-11-21T04:27:59;7.87;;;2.80;;
32824;SDS011;51060;42.640;24.356;2022-11-21T04:30:25;7.20;;;3.10;;
32824;SDS011;51060;42.640;24.356;2022-11-21T04:32:51;6.23;;;2.97;;
32824;SDS011;51060;42.640;24.356;2022-11-21T04:35:17;10.00;;;7.47;;
32824;SDS011;51060;42.640;24.356;2022-11-21T04:37:43;8.13;;;5.57;;
32824;SDS011;51060;42.640;24.356;2022-11-21T04:40:09;47.13;;;35.23;;
32824;SDS011;51060;42.640;24.356;2022-11-21T04:42:35;22.20;;;16.53;;
32824;SDS011;51060;42.640;24.356;2022-11-21T04:45:00;16.20;;;9.57;;
32824;SDS011;51060;42.640;24.356;2022-11-21T04:47:26;9.80;;;5.43;;
32824;SDS011;51060;42.640;24.356;2022-11-21T04:49:51;12.03;;;8.40;;
32824;SDS011;51060;42.640;24.356;2022-11-21T04:52:17;15.57;;;9.67;;
32824;SDS011;51060;42.640;24.356;2022-11-21T04:54:42;18.60;;;12.23;;
32824;SDS011;51060;42.640;24.356;2022-11-21T04:57:08;17.17;;;10.90;;
32824;SDS011;51060;42.640;24.356;2022-11-21T04:59:33;24.90;;;16.83;;
32824;SDS011;51060;42.640;24.356;2022-11-21T05:01:59;17.57;;;10.30;;
32824;SDS011;51060;42.640;24.356;2022-11-21T05:04:27;15.23;;;10.90;;
32824;SDS011;51060;42.640;24.356;2022-11-21T05:06:52;24.57;;;16.57;;
32824;SDS011;51060;42.640;24.356;2022-11-21T05:09:18;19.40;;;13.47;;
32824;SDS011;51060;42.640;24.356;2022-11-21T05:11:43;33.27;;;24.03;;
32824;SDS011;51060;42.640;24.356;2022-11-21T05:14:27;25.13;;;18.47;;
32824;SDS011;51060;42.640;24.356;2022-11-21T05:16:53;12.30;;;8.70;;
32824;SDS011;51060;42.640;24.356;2022-11-21T05:19:18;42.07;;;33.30;;
32824;SDS011;51060;42.640;24.356;2022-11-21T05:21:44;17.13;;;12.87;;
32824;SDS011;51060;42.640;24.356;2022-11-21T05:24:10;16.43;;;12.40;;
32824;SDS011;51060;42.640;24.356;2022-11-21T05:26:35;16.37;;;11.23;;
32824;SDS011;51060;42.640;24.356;2022-11-21T05:29:02;9.30;;;8.23;;
32824;SDS011;51060;42.640;24.356;2022-11-21T05:31:28;20.43;;;13.10;;
32824;SDS011;51060;42.640;24.356;2022-11-21T05:33:53;23.60;;;17.47;;
32824;SDS011;51060;42.640;24.356;2022-11-21T05:36:19;52.27;;;37.57;;
32824;SDS011;51060;42.640;24.356;2022-11-21T05:38:45;23.77;;;18.57;;
32824;SDS011;51060;42.640;24.356;2022-11-21T05:41:10;21.67;;;17.83;;
32824;SDS011;51060;42.640;24.356;2022-11-21T05:43:36;24.00;;;15.93;;
32824;SDS011;51060;42.640;24.356;2022-11-21T05:46:14;22.47;;;15.47;;
32824;SDS011;51060;42.640;24.356;2022-11-21T05:48:40;21.23;;;14.70;;
32824;SDS011;51060;42.640;24.356;2022-11-21T05:51:06;17.53;;;14.33;;
32824;SDS011;51060;42.640;24.356;2022-11-21T05:53:32;21.77;;;17.93;;
32824;SDS011;51060;42.640;24.356;2022-11-21T05:56:05;19.43;;;15.47;;
32824;SDS011;51060;42.640;24.356;2022-11-21T05:58:32;30.00;;;22.07;;
32824;SDS011;51060;42.640;24.356;2022-11-21T06:00:58;25.40;;;17.90;;
32824;SDS011;51060;42.640;24.356;2022-11-21T06:03:25;17.10;;;11.67;;
32824;SDS011;51060;42.640;24.356;2022-11-21T06:05:51;11.33;;;6.97;;
32824;SDS011;51060;42.640;24.356;2022-11-21T06:08:25;11.63;;;6.43;;
32824;SDS011;51060;42.640;24.356;2022-11-21T06:10:51;9.27;;;4.00;;
32824;SDS011;51060;42.640;24.356;2022-11-21T06:13:17;10.20;;;6.97;;
32824;SDS011;51060;42.640;24.356;2022-11-21T06:15:53;13.70;;;7.63;;
32824;SDS011;51060;42.640;24.356;2022-11-21T06:18:27;14.37;;;9.77;;
32824;SDS011;51060;42.640;24.356;2022-11-21T06:20:53;10.27;;;7.03;;
32824;SDS011;51060;42.640;24.356;2022-11-21T06:23:19;14.40;;;8.77;;
32824;SDS011;51060;42.640;24.356;2022-11-21T06:25:45;11.90;;;6.33;;
32824;SDS011;51060;42.640;24.356;2022-11-21T06:28:11;10.00;;;6.03;;
32824;SDS011;51060;42.640;24.356;2022-11-21T06:30:37;11.13;;;5.77;;
32824;SDS011;51060;42.640;24.356;2022-11-21T06:33:03;13.10;;;7.37;;
32824;SDS011;51060;42.640;24.356;2022-11-21T06:35:29;17.63;;;10.07;;
32824;SDS011;51060;42.640;24.356;2022-11-21T06:37:55;12.03;;;9.07;;
32824;SDS011;51060;42.640;24.356;2022-11-21T06:40:22;17.20;;;9.83;;
32824;SDS011;51060;42.640;24.356;2022-11-21T06:42:48;21.37;;;13.20;;
32824;SDS011;51060;42.640;24.356;2022-11-21T06:45:14;22.53;;;14.57;;
32824;SDS011;51060;42.640;24.356;2022-11-21T06:47:39;17.90;;;10.83;;
32824;SDS011;51060;42.640;24.356;2022-11-21T06:50:05;16.43;;;7.43;;
32824;SDS011;51060;42.640;24.356;2022-11-21T06:52:32;11.40;;;6.57;;
32824;SDS011;51060;42.640;24.356;2022-11-21T06:54:58;10.67;;;6.13;;
32824;SDS011;51060;42.640;24.356;2022-11-21T06:57:24;10.53;;;5.30;;
32824;SDS011;51060;42.640;24.356;2022-11-21T06:59:49;6.47;;;3.70;;
32824;SDS011;51060;42.640;24.356;2022-11-21T07:02:15;11.10;;;5.60;;
32824;SDS011;51060;42.640;24.356;2022-11-21T07:04:40;14.97;;;7.13;;
32824;SDS011;51060;42.640;24.356;2022-11-21T07:07:06;8.80;;;6.50;;
32824;SDS011;51060;42.640;24.356;2022-11-21T07:09:32;12.17;;;6.17;;
32824;SDS011;51060;42.640;24.356;2022-11-21T07:11:59;9.57;;;5.70;;
32824;SDS011;51060;42.640;24.356;2022-11-21T07:14:45;7.17;;;4.03;;
32824;SDS011;51060;42.640;24.356;2022-11-21T07:17:11;8.17;;;4.43;;
32824;SDS011;51060;42.640;24.356;2022-11-21T07:19:37;8.47;;;3.07;;
32824;SDS011;51060;42.640;24.356;2022-11-21T07:22:02;9.80;;;3.53;;
32824;SDS011;51060;42.640;24.356;2022-11-21T07:24:28;4.97;;;2.77;;
32824;SDS011;51060;42.640;24.356;2022-11-21T07:26:54;7.33;;;3.10;;
32824;SDS011;51060;42.640;24.356;2022-11-21T07:29:19;7.57;;;4.13;;
32824;SDS011;51060;42.640;24.356;2022-11-21T07:31:45;7.03;;;2.40;;
32824;SDS011;51060;42.640;24.356;2022-11-21T07:34:10;6.75;;;2.50;;
32824;SDS011;51060;42.640;24.356;2022-11-21T07:36:36;4.25;;;1.55;;
32824;SDS011;51060;42.640;24.356;2022-11-21T07:39:04;5.30;;;2.55;;
32824;SDS011;51060;42.640;24.356;2022-11-21T07:41:31;5.28;;;1.67;;
32824;SDS011;51060;42.640;24.356;2022-11-21T07:43:56;7.90;;;3.53;;
32824;SDS011;51060;42.640;24.356;2022-11-21T07:46:22;10.27;;;4.07;;
32824;SDS011;51060;42.640;24.356;2022-11-21T07:48:47;9.68;;;4.20;;
32824;SDS011;51060;42.640;24.356;2022-11-21T07:51:13;9.70;;;3.60;;
32824;SDS011;51060;42.640;24.356;2022-11-21T07:53:39;7.63;;;3.50;;
32824;SDS011;51060;42.640;24.356;2022-11-21T07:56:04;6.05;;;2.88;;
32824;SDS011;51060;42.640;24.356;2022-11-21T07:58:33;6.25;;;3.33;;
32824;SDS011;51060;42.640;24.356;2022-11-21T08:01:01;6.22;;;3.83;;
32824;SDS011;51060;42.640;24.356;2022-11-21T08:03:29;7.60;;;3.65;;
32824;SDS011;51060;42.640;24.356;2022-11-21T08:05:55;8.07;;;3.37;;
32824;SDS011;51060;42.640;24.356;2022-11-21T08:08:21;6.30;;;3.10;;
32824;SDS011;51060;42.640;24.356;2022-11-21T08:10:46;6.77;;;3.63;;
32824;SDS011;51060;42.640;24.356;2022-11-21T08:13:12;5.40;;;3.20;;
32824;SDS011;51060;42.640;24.356;2022-11-21T08:15:38;5.78;;;3.05;;
32824;SDS011;51060;42.640;24.356;2022-11-21T08:18:11;8.63;;;2.63;;
32824;SDS011;51060;42.640;24.356;2022-11-21T08:20:38;6.18;;;2.85;;
32824;SDS011;51060;42.640;24.356;2022-11-21T08:23:04;6.38;;;3.80;;
32824;SDS011;51060;42.640;24.356;2022-11-21T08:25:31;6.53;;;2.42;;
32824;SDS011;51060;42.640;24.356;2022-11-21T08:27:57;2.83;;;0.95;;
32824;SDS011;51060;42.640;24.356;2022-11-21T08:30:23;3.78;;;1.15;;
32824;SDS011;51060;42.640;24.356;2022-11-21T08:32:48;4.38;;;1.95;;
32824;SDS011;51060;42.640;24.356;2022-11-21T08:35:14;5.18;;;1.63;;
32824;SDS011;51060;42.640;24.356;2022-11-21T08:37:40;3.85;;;1.83;;
32824;SDS011;51060;42.640;24.356;2022-11-21T08:40:06;35.33;;;16.88;;
32824;SDS011;51060;42.640;24.356;2022-11-21T08:42:32;11.70;;;5.40;;
32824;SDS011;51060;42.640;24.356;2022-11-21T08:44:57;3.97;;;1.30;;
32824;SDS011;51060;42.640;24.356;2022-11-21T08:47:23;4.72;;;1.60;;
32824;SDS011;51060;42.640;24.356;2022-11-21T08:49:48;6.15;;;1.92;;
32824;SDS011;51060;42.640;24.356;2022-11-21T08:52:14;5.00;;;2.10;;
32824;SDS011;51060;42.640;24.356;2022-11-21T08:54:41;4.68;;;2.20;;
32824;SDS011;51060;42.640;24.356;2022-11-21T08:57:08;5.45;;;2.40;;
32824;SDS011;51060;42.640;24.356;2022-11-21T08:59:34;7.28;;;2.50;;
32824;SDS011;51060;42.640;24.356;2022-11-21T09:02:00;6.13;;;2.10;;
32824;SDS011;51060;42.640;24.356;2022-11-21T09:04:25;3.57;;;2.10;;
32824;SDS011;51060;42.640;24.356;2022-11-21T09:06:51;8.68;;;4.65;;
32824;SDS011;51060;42.640;24.356;2022-11-21T09:09:16;7.25;;;3.00;;
32824;SDS011;51060;42.640;24.356;2022-11-21T09:11:42;9.85;;;5.80;;
32824;SDS011;51060;42.640;24.356;2022-11-21T09:14:07;6.13;;;3.10;;
32824;SDS011;51060;42.640;24.356;2022-11-21T09:16:51;3.92;;;2.20;;
32824;SDS011;51060;42.640;24.356;2022-11-21T09:19:35;5.88;;;2.65;;
32824;SDS011;51060;42.640;24.356;2022-11-21T09:22:00;6.65;;;3.67;;
32824;SDS011;51060;42.640;24.356;2022-11-21T09:24:26;10.20;;;3.83;;
32824;SDS011;51060;42.640;24.356;2022-11-21T09:26:51;8.77;;;5.60;;
32824;SDS011;51060;42.640;24.356;2022-11-21T09:29:17;5.28;;;3.70;;
32824;SDS011;51060;42.640;24.356;2022-11-21T09:31:43;4.05;;;3.65;;
32824;SDS011;51060;42.640;24.356;2022-11-21T09:34:09;3.30;;;2.40;;
32824;SDS011;51060;42.640;24.356;2022-11-21T09:36:34;3.47;;;2.20;;
32824;SDS011;51060;42.640;24.356;2022-11-21T09:39:00;1.67;;;1.55;;
32824;SDS011;51060;42.640;24.356;2022-11-21T09:41:36;3.55;;;2.40;;
32824;SDS011;51060;42.640;24.356;2022-11-21T09:47:23;3.17;;;2.15;;
32824;SDS011;51060;42.640;24.356;2022-11-21T09:57:43;1.40;;;1.30;;
32824;SDS011;51060;42.640;24.356;2022-11-21T10:00:23;2.58;;;1.70;;
32824;SDS011;51060;42.640;24.356;2022-11-21T10:02:49;2.87;;;1.90;;
32824;SDS011;51060;42.640;24.356;2022-11-21T10:05:16;1.40;;;1.30;;
32824;SDS011;51060;42.640;24.356;2022-11-21T10:07:42;3.25;;;1.70;;
32824;SDS011;51060;42.640;24.356;2022-11-21T10:29:29;1.20;;;1.10;;
32824;SDS011;51060;42.640;24.356;2022-11-21T10:32:02;3.10;;;1.50;;
32824;SDS011;51060;42.640;24.356;2022-11-21T10:34:36;1.65;;;1.52;;
32824;SDS011;51060;42.640;24.356;2022-11-21T10:37:26;3.20;;;2.10;;
32824;SDS011;51060;42.640;24.356;2022-11-21T10:39:48;3.40;;;2.58;;
32824;SDS011;51060;42.640;24.356;2022-11-21T10:42:17;3.72;;;2.65;;
32824;SDS011;51060;42.640;24.356;2022-11-21T10:44:59;14.73;;;9.60;;
32824;SDS011;51060;42.640;24.356;2022-11-21T10:47:41;3.35;;;2.83;;
32824;SDS011;51060;42.640;24.356;2022-11-21T10:52:34;2.20;;;1.92;;
32824;SDS011;51060;42.640;24.356;2022-11-21T10:55:06;4.25;;;3.40;;
32824;SDS011;51060;42.640;24.356;2022-11-21T11:02:38;4.67;;;3.50;;
32824;SDS011;51060;42.640;24.356;2022-11-21T11:10:25;3.80;;;2.50;;
32824;SDS011;51060;42.640;24.356;2022-11-21T11:12:51;2.53;;;2.27;;
32824;SDS011;51060;42.640;24.356;2022-11-21T11:15:36;3.13;;;2.63;;
32824;SDS011;51060;42.640;24.356;2022-11-21T11:18:04;10.57;;;7.30;;
32824;SDS011;51060;42.640;24.356;2022-11-21T11:23:15;2.47;;;2.27;;
32824;SDS011;51060;42.640;24.356;2022-11-21T11:25:54;2.93;;;2.50;;
32824;SDS011;51060;42.640;24.356;2022-11-21T11:28:22;3.43;;;3.10;;
32824;SDS011;51060;42.640;24.356;2022-11-21T11:30:49;5.57;;;4.43;;
32824;SDS011;51060;42.640;24.356;2022-11-21T11:38:29;2.45;;;2.25;;
32824;SDS011;51060;42.640;24.356;2022-11-21T11:40:55;2.13;;;1.83;;
32824;SDS011;51060;42.640;24.356;2022-11-21T11:43:36;3.43;;;2.00;;
32824;SDS011;51060;42.640;24.356;2022-11-21T11:49:29;1.77;;;1.67;;
32824;SDS011;51060;42.640;24.356;2022-11-21T11:52:30;2.10;;;1.90;;
32824;SDS011;51060;42.640;24.356;2022-11-21T11:55:02;5.17;;;2.10;;
32824;SDS011;51060;42.640;24.356;2022-11-21T11:57:31;5.17;;;3.23;;
32824;SDS011;51060;42.640;24.356;2022-11-21T12:00:12;3.77;;;2.20;;
32824;SDS011;51060;42.640;24.356;2022-11-21T12:05:29;3.20;;;2.53;;
32824;SDS011;51060;42.640;24.356;2022-11-21T12:08:02;2.93;;;2.20;;
32824;SDS011;51060;42.640;24.356;2022-11-21T12:11:10;3.83;;;1.83;;
32824;SDS011;51060;42.640;24.356;2022-11-21T12:13:56;2.00;;;1.77;;
32824;SDS011;51060;42.640;24.356;2022-11-21T12:16:31;2.00;;;1.90;;
32824;SDS011;51060;42.640;24.356;2022-11-21T12:19:02;1.73;;;1.20;;
32824;SDS011;51060;42.640;24.356;2022-11-21T12:21:32;1.80;;;1.70;;
32824;SDS011;51060;42.640;24.356;2022-11-21T12:23:57;3.43;;;3.13;;
32824;SDS011;51060;42.640;24.356;2022-11-21T12:26:32;2.33;;;2.13;;
32824;SDS011;51060;42.640;24.356;2022-11-21T12:34:53;2.30;;;2.00;;
32824;SDS011;51060;42.640;24.356;2022-11-21T12:43:19;1.50;;;1.30;;
32824;SDS011;51060;42.640;24.356;2022-11-21T12:46:03;3.10;;;2.03;;
32824;SDS011;51060;42.640;24.356;2022-11-21T12:59:47;2.63;;;2.43;;
32824;SDS011;51060;42.640;24.356;2022-11-21T13:08:17;2.50;;;2.00;;
32824;SDS011;51060;42.640;24.356;2022-11-21T13:10:54;2.77;;;2.50;;
32824;SDS011;51060;42.640;24.356;2022-11-21T13:13:59;2.10;;;1.90;;
32824;SDS011;51060;42.640;24.356;2022-11-21T13:16:29;3.20;;;1.73;;
32824;SDS011;51060;42.640;24.356;2022-11-21T13:21:49;2.17;;;1.97;;
32824;SDS011;51060;42.640;24.356;2022-11-21T13:30:19;5.03;;;3.73;;
32824;SDS011;51060;42.640;24.356;2022-11-21T13:32:53;2.67;;;2.30;;
32824;SDS011;51060;42.640;24.356;2022-11-21T13:45:40;3.07;;;2.17;;
32824;SDS011;51060;42.640;24.356;2022-11-21T13:48:16;1.33;;;1.23;;
32824;SDS011;51060;42.640;24.356;2022-11-21T13:50:52;1.97;;;1.77;;
32824;SDS011;51060;42.640;24.356;2022-11-21T13:56:24;1.77;;;1.50;;
32824;SDS011;51060;42.640;24.356;2022-11-21T14:09:59;3.47;;;2.50;;
32824;SDS011;51060;42.640;24.356;2022-11-21T14:20:23;5.50;;;4.90;;
32824;SDS011;51060;42.640;24.356;2022-11-21T14:22:57;4.53;;;3.10;;
32824;SDS011;51060;42.640;24.356;2022-11-21T14:25:33;5.00;;;4.47;;
32824;SDS011;51060;42.640;24.356;2022-11-21T14:27:59;7.03;;;6.20;;
32824;SDS011;51060;42.640;24.356;2022-11-21T14:30:27;5.83;;;4.90;;
32824;SDS011;51060;42.640;24.356;2022-11-21T14:33:15;6.37;;;4.90;;
32824;SDS011;51060;42.640;24.356;2022-11-21T14:36:04;4.87;;;3.70;;
32824;SDS011;51060;42.640;24.356;2022-11-21T14:38:38;5.60;;;4.83;;
32824;SDS011;51060;42.640;24.356;2022-11-21T14:46:26;7.13;;;5.20;;
32824;SDS011;51060;42.640;24.356;2022-11-21T14:48:56;8.07;;;5.63;;
32824;SDS011;51060;42.640;24.356;2022-11-21T14:51:37;7.27;;;5.33;;
32824;SDS011;51060;42.640;24.356;2022-11-21T14:54:02;2.67;;;2.47;;
32824;SDS011;51060;42.640;24.356;2022-11-21T14:56:29;3.20;;;2.80;;
32824;SDS011;51060;42.640;24.356;2022-11-21T14:58:55;6.20;;;5.53;;
32824;SDS011;51060;42.640;24.356;2022-11-21T15:01:23;3.60;;;3.30;;
32824;SDS011;51060;42.640;24.356;2022-11-21T15:04:24;4.70;;;4.03;;
32824;SDS011;51060;42.640;24.356;2022-11-21T15:06:42;4.80;;;3.60;;
32824;SDS011;51060;42.640;24.356;2022-11-21T15:09:12;4.27;;;3.70;;
32824;SDS011;51060;42.640;24.356;2022-11-21T15:11:51;6.07;;;4.90;;
32824;SDS011;51060;42.640;24.356;2022-11-21T15:16:57;3.00;;;2.70;;
32824;SDS011;51060;42.640;24.356;2022-11-21T15:19:26;3.27;;;3.00;;
32824;SDS011;51060;42.640;24.356;2022-11-21T15:21:55;3.93;;;3.40;;
32824;SDS011;51060;42.640;24.356;2022-11-21T15:27:21;3.83;;;3.30;;
32824;SDS011;51060;42.640;24.356;2022-11-21T15:32:27;3.20;;;2.90;;
32824;SDS011;51060;42.640;24.356;2022-11-21T15:34:53;7.70;;;6.97;;
32824;SDS011;51060;42.640;24.356;2022-11-21T15:37:18;5.07;;;4.40;;
32824;SDS011;51060;42.640;24.356;2022-11-21T15:39:45;10.00;;;9.10;;
32824;SDS011;51060;42.640;24.356;2022-11-21T15:44:59;6.10;;;5.60;;
32824;SDS011;51060;42.640;24.356;2022-11-21T15:47:26;5.53;;;5.03;;
32824;SDS011;51060;42.640;24.356;2022-11-21T15:49:52;6.97;;;6.13;;
32824;SDS011;51060;42.640;24.356;2022-11-21T15:52:18;9.33;;;7.60;;
32824;SDS011;51060;42.640;24.356;2022-11-21T15:54:44;4.53;;;4.13;;
32824;SDS011;51060;42.640;24.356;2022-11-21T15:57:09;8.83;;;6.53;;
32824;SDS011;51060;42.640;24.356;2022-11-21T15:59:35;6.77;;;5.43;;
32824;SDS011;51060;42.640;24.356;2022-11-21T16:02:01;7.03;;;4.67;;
32824;SDS011;51060;42.640;24.356;2022-11-21T16:04:26;8.47;;;6.10;;
32824;SDS011;51060;42.640;24.356;2022-11-21T16:06:52;5.77;;;4.90;;
32824;SDS011;51060;42.640;24.356;2022-11-21T16:09:18;8.33;;;6.87;;
32824;SDS011;51060;42.640;24.356;2022-11-21T16:11:44;9.23;;;7.40;;
32824;SDS011;51060;42.640;24.356;2022-11-21T16:14:12;11.93;;;9.03;;
32824;SDS011;51060;42.640;24.356;2022-11-21T16:16:39;20.83;;;13.83;;
32824;SDS011;51060;42.640;24.356;2022-11-21T16:19:06;22.20;;;18.63;;
32824;SDS011;51060;42.640;24.356;2022-11-21T16:21:33;15.30;;;13.27;;
32824;SDS011;51060;42.640;24.356;2022-11-21T16:24:00;18.40;;;15.50;;
32824;SDS011;51060;42.640;24.356;2022-11-21T16:26:25;23.00;;;19.27;;
32824;SDS011;51060;42.640;24.356;2022-11-21T16:28:54;24.13;;;19.37;;
32824;SDS011;51060;42.640;24.356;2022-11-21T16:31:25;17.00;;;13.57;;
32824;SDS011;51060;42.640;24.356;2022-11-21T16:33:52;26.27;;;20.13;;
32824;SDS011;51060;42.640;24.356;2022-11-21T16:36:19;42.97;;;27.70;;
32824;SDS011;51060;42.640;24.356;2022-11-21T16:38:45;23.30;;;16.03;;
32824;SDS011;51060;42.640;24.356;2022-11-21T16:41:11;25.43;;;17.90;;
32824;SDS011;51060;42.640;24.356;2022-11-21T16:43:36;33.80;;;20.90;;
32824;SDS011;51060;42.640;24.356;2022-11-21T16:46:10;23.60;;;14.87;;
32824;SDS011;51060;42.640;24.356;2022-11-21T16:48:35;10.03;;;7.87;;
32824;SDS011;51060;42.640;24.356;2022-11-21T16:51:08;15.37;;;13.23;;
32824;SDS011;51060;42.640;24.356;2022-11-21T16:53:34;2.30;;;2.10;;
32824;SDS011;51060;42.640;24.356;2022-11-21T16:56:00;6.97;;;4.13;;
32824;SDS011;51060;42.640;24.356;2022-11-21T16:58:25;6.93;;;4.80;;
32824;SDS011;51060;42.640;24.356;2022-11-21T17:00:51;13.43;;;8.07;;
32824;SDS011;51060;42.640;24.356;2022-11-21T17:03:16;9.97;;;6.27;;
32824;SDS011;51060;42.640;24.356;2022-11-21T17:05:42;17.87;;;8.80;;
32824;SDS011;51060;42.640;24.356;2022-11-21T17:08:07;8.20;;;6.20;;
32824;SDS011;51060;42.640;24.356;2022-11-21T17:10:33;6.27;;;5.67;;
32824;SDS011;51060;42.640;24.356;2022-11-21T17:12:59;7.73;;;6.30;;
32824;SDS011;51060;42.640;24.356;2022-11-21T17:15:24;8.77;;;7.30;;
32824;SDS011;51060;42.640;24.356;2022-11-21T17:17:50;20.37;;;10.53;;
32824;SDS011;51060;42.640;24.356;2022-11-21T17:20:15;24.10;;;11.13;;
32824;SDS011;51060;42.640;24.356;2022-11-21T17:22:41;28.60;;;12.90;;